Time;durP1;ratioP1;P1;durP2;ratioP2;P2;SDS_P1;SDS_P2;PMS_P1;PMS_P2;Temp;Humidity;BMP_temperature;BMP_pressure;BME280_temperature;BME280_humidity;BME280_pressure;Samples;Min_cycle;Max_cycle;Signal;HPM_P1;HPM_P2
2022/06/09 00:01:24;;;;;;;5.77;5.37;;;16.60;99.90;;;;;;5046465;28;20199;-45
2022/06/09 00:03:57;;;;;;;5.83;5.37;;;16.50;99.90;;;;;;5041835;28;20950;-45
2022/06/09 00:06:26;;;;;;;5.87;5.47;;;16.50;99.90;;;;;;5042659;28;20222;-43
2022/06/09 00:08:54;;;;;;;5.40;5.00;;;16.50;99.90;;;;;;5044255;28;20195;-45
2022/06/09 00:11:24;;;;;;;5.77;5.30;;;16.50;99.90;;;;;;5045084;28;20211;-42
2022/06/09 00:13:51;;;;;;;6.50;6.00;;;16.50;99.90;;;;;;5035743;28;20941;-45
2022/06/09 00:16:18;;;;;;;6.60;5.90;;;16.50;99.90;;;;;;5054603;28;20195;-42
2022/06/09 00:18:45;;;;;;;6.90;5.73;;;16.50;99.90;;;;;;5041346;28;20198;-42
2022/06/09 00:21:14;;;;;;;6.43;5.37;;;16.50;99.90;;;;;;5044873;28;20219;-42
2022/06/09 00:23:40;;;;;;;6.57;6.07;;;16.50;99.90;;;;;;5041956;28;20668;-42
2022/06/09 00:26:08;;;;;;;5.63;5.23;;;16.50;99.90;;;;;;5044833;28;20199;-42
2022/06/09 00:28:35;;;;;;;6.60;5.97;;;16.50;99.90;;;;;;5036703;28;20240;-42
2022/06/09 00:31:02;;;;;;;6.70;6.23;;;16.40;99.90;;;;;;5047808;28;20969;-43
2022/06/09 00:33:29;;;;;;;6.63;6.13;;;16.40;99.90;;;;;;5043861;28;20199;-47
2022/06/09 00:35:55;;;;;;;7.13;6.47;;;16.40;99.90;;;;;;5042125;28;20215;-42
2022/06/09 00:38:24;;;;;;;7.07;6.47;;;16.40;99.90;;;;;;5050631;28;20226;-46
2022/06/09 00:40:50;;;;;;;7.03;6.37;;;16.40;99.90;;;;;;5041201;28;20231;-43
2022/06/09 00:43:18;;;;;;;6.93;6.43;;;16.40;99.90;;;;;;5050838;28;20198;-43
2022/06/09 00:45:50;;;;;;;7.23;6.63;;;16.40;99.90;;;;;;5041629;28;20191;-43
2022/06/09 00:48:29;;;;;;;7.47;6.87;;;16.40;99.90;;;;;;5047975;28;20199;-50
2022/06/09 00:51:01;;;;;;;7.37;6.67;;;16.40;99.90;;;;;;5042827;28;21141;-43
2022/06/09 00:53:35;;;;;;;7.10;6.60;;;16.40;99.90;;;;;;5041132;28;20199;-46
2022/06/09 00:56:03;;;;;;;7.77;6.97;;;16.40;99.90;;;;;;5047548;28;20227;-43
2022/06/09 00:58:36;;;;;;;7.73;7.10;;;16.40;99.90;;;;;;5042495;28;20204;-43
2022/06/09 01:01:06;;;;;;;7.50;6.90;;;16.40;99.90;;;;;;5041837;28;20635;-44
2022/06/09 01:03:40;;;;;;;7.50;6.90;;;16.40;99.90;;;;;;5044342;28;20206;-44
2022/06/09 01:06:11;;;;;;;7.97;7.17;;;16.40;99.90;;;;;;5044435;28;20204;-44
2022/06/09 01:08:47;;;;;;;8.10;7.50;;;16.40;99.90;;;;;;5040735;28;20199;-43
2022/06/09 01:11:14;;;;;;;8.20;7.40;;;16.30;99.90;;;;;;5041419;28;20211;-46
2022/06/09 01:13:42;;;;;;;7.40;6.67;;;16.30;99.90;;;;;;5047175;28;20198;-43
2022/06/09 01:16:15;;;;;;;7.67;6.93;;;16.30;99.90;;;;;;5047587;28;20218;-43
2022/06/09 01:18:52;;;;;;;7.63;6.93;;;16.30;99.90;;;;;;5042531;28;20781;-43
2022/06/09 01:21:42;;;;;;;7.93;7.13;;;16.30;99.90;;;;;;5052580;28;20578;-44
2022/06/09 01:24:47;;;;;;;7.63;6.10;;;16.20;99.90;;;;;;5052775;28;20200;-48
2022/06/09 01:27:30;;;;;;;8.53;6.77;;;16.20;99.90;;;;;;5041972;28;20219;-44
2022/06/09 01:30:06;;;;;;;7.07;6.37;;;16.10;99.90;;;;;;5042293;28;20215;-43
2022/06/09 01:32:39;;;;;;;8.57;6.77;;;16.10;99.90;;;;;;5035535;28;20215;-45
2022/06/09 01:35:17;;;;;;;6.77;6.17;;;16.10;99.90;;;;;;5046568;28;20215;-43
2022/06/09 01:37:47;;;;;;;7.70;7.10;;;16.10;99.90;;;;;;5053957;28;20190;-43
2022/06/09 01:40:17;;;;;;;8.07;7.37;;;16.10;99.90;;;;;;5063158;28;20219;-43
2022/06/09 01:42:46;;;;;;;8.87;8.00;;;16.00;99.90;;;;;;5037716;28;20248;-45
2022/06/09 01:45:16;;;;;;;10.80;8.40;;;16.00;99.90;;;;;;5050831;28;20917;-48
2022/06/09 01:47:49;;;;;;;9.73;8.63;;;16.00;99.90;;;;;;5036760;28;20206;-42
2022/06/09 01:50:24;;;;;;;10.40;9.00;;;16.10;99.90;;;;;;5055656;28;20250;-42
2022/06/09 01:52:53;;;;;;;10.00;8.80;;;16.10;99.90;;;;;;5045332;28;20198;-43
2022/06/09 01:55:23;;;;;;;9.47;8.20;;;16.10;99.90;;;;;;5043283;28;20300;-42
2022/06/09 01:57:57;;;;;;;10.47;9.53;;;16.10;99.90;;;;;;5041802;28;20243;-41
2022/06/09 02:00:25;;;;;;;9.63;8.73;;;16.10;99.90;;;;;;5042805;28;20684;-41
2022/06/09 02:02:58;;;;;;;11.00;9.00;;;16.00;99.90;;;;;;5032580;28;20210;-40
2022/06/09 02:05:28;;;;;;;11.07;10.03;;;16.00;99.90;;;;;;5051007;28;20227;-43
2022/06/09 02:07:58;;;;;;;10.63;9.70;;;16.00;99.90;;;;;;5041454;28;20249;-40
2022/06/09 02:10:31;;;;;;;11.53;10.40;;;16.00;99.90;;;;;;5042427;28;20211;-41
2022/06/09 02:13:02;;;;;;;12.23;9.73;;;16.00;99.90;;;;;;5039881;28;20218;-42
2022/06/09 02:15:34;;;;;;;13.00;10.70;;;16.00;99.90;;;;;;5047455;28;20219;-41
2022/06/09 02:18:09;;;;;;;11.40;10.40;;;16.00;99.90;;;;;;5043074;28;20691;-43
2022/06/09 02:20:41;;;;;;;13.00;10.70;;;16.00;99.90;;;;;;5040895;28;20226;-41
2022/06/09 02:23:10;;;;;;;11.17;10.13;;;16.00;99.90;;;;;;5053194;28;20226;-41
2022/06/09 02:25:37;;;;;;;11.23;10.27;;;16.00;99.90;;;;;;5040354;28;20229;-41
2022/06/09 02:28:05;;;;;;;11.10;10.03;;;16.00;99.90;;;;;;5042997;28;20719;-42
2022/06/09 02:30:32;;;;;;;10.57;9.57;;;15.90;99.90;;;;;;5046857;28;20227;-42
2022/06/09 02:32:58;;;;;;;12.20;10.13;;;15.80;99.90;;;;;;5045646;28;20253;-40
2022/06/09 02:35:27;;;;;;;10.57;9.47;;;15.80;99.90;;;;;;5041482;28;20230;-41
2022/06/09 02:37:54;;;;;;;11.27;10.00;;;15.80;99.90;;;;;;5050487;28;20271;-45
2022/06/09 02:40:20;;;;;;;10.40;9.47;;;15.80;99.90;;;;;;5046934;28;20223;-44
2022/06/09 02:42:48;;;;;;;11.60;10.40;;;15.80;99.90;;;;;;5039566;28;20998;-43
2022/06/09 02:45:15;;;;;;;10.93;9.83;;;15.90;99.90;;;;;;5056956;28;20521;-44
2022/06/09 02:47:42;;;;;;;11.97;10.23;;;15.80;99.90;;;;;;5060151;28;21028;-42
2022/06/09 02:50:10;;;;;;;11.77;10.33;;;15.80;99.90;;;;;;5057542;28;20586;-41
2022/06/09 02:52:38;;;;;;;10.70;9.73;;;15.80;99.90;;;;;;5048887;28;20651;-44
2022/06/09 02:55:06;;;;;;;10.37;9.57;;;15.80;99.90;;;;;;5048592;28;20215;-40
2022/06/09 02:57:33;;;;;;;10.27;9.37;;;15.80;99.90;;;;;;5043998;28;20583;-43
2022/06/09 02:59:59;;;;;;;8.83;7.93;;;15.90;99.90;;;;;;5048074;28;20223;-44
2022/06/09 03:02:27;;;;;;;8.90;8.00;;;15.80;99.90;;;;;;5045300;28;20569;-41
2022/06/09 03:04:53;;;;;;;7.60;6.80;;;15.80;99.90;;;;;;5043981;28;20192;-41
2022/06/09 03:07:20;;;;;;;8.10;7.50;;;15.70;99.90;;;;;;5047939;28;20207;-40
2022/06/09 03:09:50;;;;;;;6.70;6.03;;;15.70;99.90;;;;;;5046939;28;20294;-46
2022/06/09 03:12:16;;;;;;;6.27;5.67;;;15.70;99.90;;;;;;5046446;28;20264;-41
2022/06/09 03:14:43;;;;;;;5.77;5.30;;;15.70;99.90;;;;;;5052335;28;20195;-39
2022/06/09 03:17:10;;;;;;;5.93;5.30;;;15.70;99.90;;;;;;5056899;28;20192;-41
2022/06/09 03:19:38;;;;;;;5.07;4.67;;;15.70;99.90;;;;;;5042688;28;20223;-40
2022/06/09 03:22:05;;;;;;;5.27;3.83;;;15.70;99.90;;;;;;5039523;28;20215;-40
2022/06/09 03:24:32;;;;;;;4.13;3.77;;;15.70;99.90;;;;;;5050707;28;20203;-40
2022/06/09 03:27:01;;;;;;;4.13;3.83;;;15.70;99.90;;;;;;5045104;28;20227;-42
2022/06/09 03:29:28;;;;;;;4.07;3.77;;;15.70;99.90;;;;;;5043098;28;20235;-40
2022/06/09 03:31:56;;;;;;;4.50;4.10;;;15.70;99.90;;;;;;5042449;28;20326;-46
2022/06/09 03:34:23;;;;;;;6.07;3.83;;;15.70;99.90;;;;;;5045052;28;20211;-40
2022/06/09 03:36:50;;;;;;;3.77;3.57;;;15.70;99.90;;;;;;5036159;28;20310;-43
2022/06/09 03:39:17;;;;;;;3.43;3.20;;;15.70;99.90;;;;;;5059741;28;20215;-42
2022/06/09 03:41:44;;;;;;;5.80;3.83;;;15.60;99.90;;;;;;5043019;28;20192;-40
2022/06/09 03:44:12;;;;;;;4.10;3.73;;;15.70;99.90;;;;;;5051536;28;20610;-45
2022/06/09 03:46:39;;;;;;;4.30;4.00;;;15.60;99.90;;;;;;5044065;28;20221;-40
2022/06/09 03:49:06;;;;;;;5.07;4.43;;;15.60;99.90;;;;;;5045685;28;20241;-41
2022/06/09 03:51:33;;;;;;;5.20;4.40;;;15.60;99.90;;;;;;5036433;28;20203;-41
2022/06/09 03:54:00;;;;;;;5.40;4.90;;;15.70;99.90;;;;;;5050988;28;20206;-41
2022/06/09 03:56:28;;;;;;;5.27;4.60;;;15.60;99.90;;;;;;5044395;28;20227;-42
2022/06/09 03:58:55;;;;;;;4.43;4.03;;;15.60;99.90;;;;;;5043609;28;20289;-41
2022/06/09 04:01:24;;;;;;;10.07;5.33;;;15.60;99.90;;;;;;5045369;28;20695;-41
2022/06/09 04:03:51;;;;;;;5.60;5.10;;;15.60;99.90;;;;;;5045142;28;20356;-40
2022/06/09 04:06:20;;;;;;;5.70;4.90;;;15.60;99.90;;;;;;5057505;28;20206;-41
2022/06/09 04:08:48;;;;;;;6.20;5.70;;;15.60;99.90;;;;;;5045397;28;20195;-45
2022/06/09 04:11:16;;;;;;;6.00;5.50;;;15.60;99.90;;;;;;5045455;28;20642;-40
2022/06/09 04:13:43;;;;;;;7.70;5.50;;;15.60;99.90;;;;;;5043384;28;20192;-41
2022/06/09 04:16:19;;;;;;;6.37;5.43;;;15.60;99.90;;;;;;5056083;28;20249;-41
2022/06/09 04:18:47;;;;;;;5.97;5.37;;;15.60;99.90;;;;;;5048889;28;20214;-40
2022/06/09 04:21:14;;;;;;;6.20;5.67;;;15.60;99.90;;;;;;5050873;28;20225;-43
2022/06/09 04:23:41;;;;;;;7.70;6.03;;;15.60;99.90;;;;;;5030649;28;20267;-43
2022/06/09 04:26:07;;;;;;;6.87;6.30;;;15.60;99.90;;;;;;5051048;28;20836;-41
2022/06/09 04:28:34;;;;;;;10.07;7.00;;;15.60;99.90;;;;;;5048004;28;20196;-43
2022/06/09 04:31:01;;;;;;;8.93;7.90;;;15.60;99.90;;;;;;5044312;28;20219;-40
2022/06/09 04:33:28;;;;;;;9.13;8.23;;;15.60;99.90;;;;;;5051478;28;20202;-43
2022/06/09 04:35:56;;;;;;;12.33;8.23;;;15.60;99.90;;;;;;5046589;28;20894;-40
2022/06/09 04:38:23;;;;;;;9.00;7.97;;;15.60;99.90;;;;;;5053183;28;20209;-41
2022/06/09 04:40:50;;;;;;;11.63;10.13;;;15.60;99.90;;;;;;5048839;28;20229;-42
2022/06/09 04:43:17;;;;;;;13.00;9.03;;;15.60;99.90;;;;;;5049253;28;20203;-46
2022/06/09 04:45:44;;;;;;;13.00;9.67;;;15.70;99.90;;;;;;5041217;28;20202;-43
2022/06/09 04:48:11;;;;;;;11.10;9.93;;;15.60;99.90;;;;;;5046908;28;20199;-42
2022/06/09 04:50:39;;;;;;;13.93;9.70;;;15.70;99.90;;;;;;5052133;28;20230;-39
2022/06/09 04:53:09;;;;;;;13.90;11.23;;;15.70;99.90;;;;;;5050065;28;20312;-42
2022/06/09 04:55:36;;;;;;;14.70;11.43;;;15.70;99.90;;;;;;5041218;28;21016;-40
2022/06/09 04:58:03;;;;;;;14.07;12.57;;;15.70;99.90;;;;;;5045519;28;20205;-41
2022/06/09 05:00:30;;;;;;;16.97;12.33;;;15.80;99.90;;;;;;5048846;28;20253;-40
2022/06/09 05:03:00;;;;;;;16.10;11.30;;;15.70;99.90;;;;;;5042455;28;20647;-40
2022/06/09 05:05:30;;;;;;;15.33;11.83;;;15.70;99.90;;;;;;5039968;28;20198;-40
2022/06/09 05:07:57;;;;;;;18.70;12.27;;;15.70;99.90;;;;;;5047263;28;20214;-43
2022/06/09 05:10:27;;;;;;;15.50;11.60;;;15.80;99.90;;;;;;5033865;28;20233;-41
2022/06/09 05:12:54;;;;;;;14.10;10.93;;;15.80;99.90;;;;;;5054411;28;20540;-42
2022/06/09 05:15:22;;;;;;;15.63;11.90;;;15.80;99.90;;;;;;5055325;28;20190;-43
2022/06/09 05:17:50;;;;;;;14.43;11.13;;;15.80;99.90;;;;;;5044670;28;20206;-40
2022/06/09 05:20:20;;;;;;;17.53;11.33;;;15.90;99.90;;;;;;5043923;28;23114;-42
2022/06/09 05:22:46;;;;;;;14.13;10.97;;;15.90;99.90;;;;;;5050271;28;20655;-39
2022/06/09 05:25:14;;;;;;;13.10;11.50;;;15.80;99.90;;;;;;5054024;28;20202;-42
2022/06/09 05:27:43;;;;;;;12.77;11.00;;;15.80;99.90;;;;;;5045938;28;20245;-41
2022/06/09 05:30:15;;;;;;;14.17;11.90;;;15.80;99.90;;;;;;5047846;28;20284;-45
2022/06/09 05:32:42;;;;;;;13.17;10.33;;;15.80;99.90;;;;;;5055697;28;20195;-42
2022/06/09 05:35:10;;;;;;;12.47;9.90;;;15.80;99.90;;;;;;5044019;28;20317;-42
2022/06/09 05:45:55;;;;;;;8.73;7.70;;;15.80;99.90;;;;;;5060503;28;20710;-43
2022/06/09 05:48:22;;;;;;;9.67;8.17;;;15.80;99.90;;;;;;5041240;28;20198;-43
2022/06/09 05:50:49;;;;;;;9.57;8.67;;;15.90;99.90;;;;;;5061218;28;20281;-40
2022/06/09 05:53:16;;;;;;;8.87;7.97;;;15.90;99.90;;;;;;5043507;28;20946;-45
2022/06/09 05:55:42;;;;;;;7.37;6.30;;;15.90;99.90;;;;;;5047948;28;20268;-41
2022/06/09 05:58:11;;;;;;;5.57;5.07;;;15.80;99.90;;;;;;5031579;28;20286;-41
2022/06/09 06:00:39;;;;;;;8.77;7.10;;;15.80;99.90;;;;;;5051243;28;20221;-42
2022/06/09 06:03:06;;;;;;;7.00;5.73;;;15.80;99.90;;;;;;5044773;28;20190;-41
2022/06/09 06:08:17;;;;;;;5.93;4.40;;;15.80;99.90;;;;;;5045990;28;20245;-43
2022/06/09 06:10:44;;;;;;;4.03;3.73;;;15.80;99.90;;;;;;5049844;28;20223;-41
2022/06/09 06:13:13;;;;;;;4.40;4.00;;;15.80;99.90;;;;;;5034662;28;20204;-43
2022/06/09 06:15:40;;;;;;;4.80;4.40;;;15.80;99.90;;;;;;5052919;28;20199;-42
2022/06/09 06:18:07;;;;;;;4.23;3.93;;;15.80;99.90;;;;;;5053627;28;20207;-40
2022/06/09 06:20:35;;;;;;;4.97;4.47;;;15.80;99.90;;;;;;5050395;28;20229;-43
2022/06/09 06:23:03;;;;;;;3.97;3.67;;;15.90;99.90;;;;;;5054559;28;20667;-40
2022/06/09 06:25:30;;;;;;;5.27;3.80;;;15.90;99.90;;;;;;5044671;28;20197;-43
2022/06/09 06:27:58;;;;;;;3.57;3.23;;;16.00;99.90;;;;;;5063415;28;20194;-40
2022/06/09 06:30:27;;;;;;;4.00;3.03;;;16.00;99.90;;;;;;5053046;28;20215;-42
2022/06/09 06:32:55;;;;;;;3.43;3.23;;;16.10;99.90;;;;;;5056632;28;20545;-40
2022/06/09 06:35:22;;;;;;;3.50;3.20;;;16.10;99.90;;;;;;5044731;28;20207;-40
2022/06/09 06:37:49;;;;;;;3.43;3.13;;;16.20;99.90;;;;;;5046862;28;20219;-43
2022/06/09 06:40:17;;;;;;;3.20;3.00;;;16.30;99.90;;;;;;5038287;28;20223;-40
2022/06/09 06:42:44;;;;;;;2.80;2.60;;;16.30;99.90;;;;;;5055409;28;20232;-40
2022/06/09 06:45:14;;;;;;;3.10;2.90;;;16.30;99.90;;;;;;5035339;28;20244;-40
2022/06/09 06:47:42;;;;;;;3.63;3.40;;;16.40;99.90;;;;;;5043903;28;20183;-41
2022/06/09 06:50:11;;;;;;;4.30;3.90;;;16.40;99.90;;;;;;5056525;28;20233;-39
2022/06/09 06:52:38;;;;;;;3.43;3.23;;;16.40;99.90;;;;;;5044695;28;20203;-41
2022/06/09 06:55:07;;;;;;;4.57;4.17;;;16.40;99.90;;;;;;5050187;28;20206;-43
2022/06/09 06:57:34;;;;;;;5.67;5.17;;;16.40;99.90;;;;;;5061018;28;20973;-43
2022/06/09 07:00:01;;;;;;;5.50;5.03;;;16.40;99.90;;;;;;5046373;28;20212;-42
2022/06/09 07:02:28;;;;;;;6.07;5.57;;;16.40;99.90;;;;;;5050744;28;20199;-42
2022/06/09 07:04:56;;;;;;;5.77;5.27;;;16.40;99.90;;;;;;5048824;28;20517;-42
2022/06/09 07:07:24;;;;;;;5.90;5.40;;;16.40;99.90;;;;;;5043559;28;20203;-41
2022/06/09 07:09:51;;;;;;;5.60;5.20;;;16.40;99.90;;;;;;5052790;28;20290;-40
2022/06/09 07:12:18;;;;;;;5.53;5.07;;;16.40;99.90;;;;;;5045776;28;20203;-41
2022/06/09 07:14:45;;;;;;;5.50;5.00;;;16.40;99.90;;;;;;5039438;28;23763;-39
2022/06/09 07:17:11;;;;;;;5.53;5.03;;;16.40;99.90;;;;;;5055145;28;20223;-40
2022/06/09 07:19:38;;;;;;;4.73;4.30;;;16.50;99.90;;;;;;5048571;28;20210;-42
2022/06/09 07:22:07;;;;;;;4.70;4.30;;;16.50;99.90;;;;;;5057008;28;20203;-40
2022/06/09 07:24:34;;;;;;;6.10;5.50;;;16.50;99.90;;;;;;5049025;28;20219;-41
2022/06/09 07:27:00;;;;;;;4.67;4.33;;;16.50;99.90;;;;;;5044894;28;20260;-40
2022/06/09 07:29:27;;;;;;;5.00;4.47;;;16.50;99.90;;;;;;5055957;28;20301;-40
2022/06/09 07:31:54;;;;;;;4.73;4.43;;;16.50;99.90;;;;;;5042200;28;20320;-40
2022/06/09 07:34:21;;;;;;;4.47;4.13;;;16.50;99.90;;;;;;5055005;28;20808;-41
2022/06/09 07:36:48;;;;;;;4.23;3.93;;;16.50;99.90;;;;;;5044656;28;20222;-40
2022/06/09 07:39:16;;;;;;;4.17;3.87;;;16.50;99.90;;;;;;5048344;28;20988;-41
2022/06/09 07:41:43;;;;;;;4.73;4.33;;;16.50;99.90;;;;;;5049244;28;20316;-40
2022/06/09 07:44:10;;;;;;;4.80;4.50;;;16.50;99.90;;;;;;5050489;28;20199;-41
2022/06/09 07:46:39;;;;;;;4.57;4.27;;;16.60;99.90;;;;;;5039052;28;20212;-40
2022/06/09 07:49:07;;;;;;;4.23;3.83;;;16.70;99.90;;;;;;5056767;28;20248;-46
2022/06/09 07:51:35;;;;;;;4.00;3.70;;;16.80;99.90;;;;;;5046920;28;20203;-42
2022/06/09 07:54:02;;;;;;;4.40;4.00;;;16.80;99.90;;;;;;5044192;28;20207;-41
2022/06/09 07:56:32;;;;;;;4.20;3.90;;;16.80;99.90;;;;;;5049316;28;20216;-41
2022/06/09 07:59:00;;;;;;;3.60;3.30;;;16.80;99.90;;;;;;5047797;28;20207;-43
2022/06/09 08:01:27;;;;;;;4.10;3.80;;;17.00;99.90;;;;;;5046040;28;20200;-43
2022/06/09 08:03:55;;;;;;;3.83;3.40;;;17.00;99.90;;;;;;5048863;28;20207;-40
2022/06/09 08:06:22;;;;;;;3.97;3.67;;;17.10;99.90;;;;;;5052185;28;20206;-42
2022/06/09 08:08:49;;;;;;;4.30;4.00;;;17.20;99.90;;;;;;5034601;28;20646;-40
2022/06/09 08:11:16;;;;;;;3.20;3.00;;;17.20;99.90;;;;;;5048015;28;20214;-41
2022/06/09 08:13:46;;;;;;;3.20;3.00;;;17.40;99.90;;;;;;5044589;28;20203;-41
2022/06/09 08:16:13;;;;;;;3.27;3.07;;;17.50;99.90;;;;;;5048306;28;20195;-42
2022/06/09 08:18:40;;;;;;;3.60;3.30;;;17.70;99.90;;;;;;5038584;28;20206;-39
2022/06/09 08:21:06;;;;;;;4.00;3.60;;;17.70;99.90;;;;;;5049790;28;20222;-39
2022/06/09 08:23:33;;;;;;;3.00;2.70;;;17.70;99.90;;;;;;5049930;28;20198;-41
2022/06/09 08:26:02;;;;;;;2.80;2.60;;;17.80;99.90;;;;;;5042740;28;20981;-43
2022/06/09 08:28:29;;;;;;;2.70;2.50;;;17.90;99.90;;;;;;5053300;28;20298;-40
2022/06/09 08:30:58;;;;;;;2.67;2.47;;;18.00;99.90;;;;;;5048503;28;20222;-41
2022/06/09 08:33:27;;;;;;;2.63;2.33;;;18.10;99.90;;;;;;5043078;28;20207;-41
2022/06/09 08:35:54;;;;;;;2.80;2.60;;;18.00;99.90;;;;;;5047278;28;20194;-41
2022/06/09 08:38:22;;;;;;;2.70;2.50;;;17.90;99.90;;;;;;5055470;28;20715;-41
2022/06/09 08:40:56;;;;;;;2.50;2.30;;;17.80;99.90;;;;;;5047962;28;20561;-41
2022/06/09 08:43:32;;;;;;;2.30;2.13;;;17.70;99.90;;;;;;5050255;28;20210;-45
2022/06/09 08:46:05;;;;;;;3.60;3.30;;;17.60;99.90;;;;;;5042276;28;20202;-44
2022/06/09 08:48:39;;;;;;;3.40;3.10;;;17.60;99.90;;;;;;5045834;28;20199;-43
2022/06/09 08:51:10;;;;;;;4.50;4.13;;;17.70;99.90;;;;;;5053025;28;20217;-44
2022/06/09 08:53:41;;;;;;;3.90;3.60;;;17.70;99.90;;;;;;5048412;28;20244;-42
2022/06/09 08:56:16;;;;;;;4.63;4.23;;;17.80;99.90;;;;;;5047346;28;20237;-46
2022/06/09 08:58:46;;;;;;;4.90;4.50;;;17.90;99.90;;;;;;5047604;28;20218;-43
2022/06/09 09:01:24;;;;;;;4.50;4.10;;;18.00;99.90;;;;;;5042529;28;20230;-43
2022/06/09 09:03:57;;;;;;;4.60;4.30;;;18.10;99.90;;;;;;5037310;28;20217;-43
2022/06/09 09:06:27;;;;;;;5.97;4.43;;;18.20;99.90;;;;;;5054121;28;20206;-42
2022/06/09 09:09:02;;;;;;;6.30;5.10;;;18.30;99.90;;;;;;5050656;28;20221;-42
2022/06/09 09:11:43;;;;;;;5.60;5.10;;;18.40;99.90;;;;;;5054211;28;20198;-41
2022/06/09 09:14:15;;;;;;;6.90;6.20;;;18.40;99.90;;;;;;5043441;28;20966;-42
2022/06/09 09:16:51;;;;;;;6.37;5.77;;;18.30;99.90;;;;;;5047032;28;20285;-41
2022/06/09 09:19:27;;;;;;;5.83;5.20;;;18.20;99.90;;;;;;5048495;28;20223;-43
2022/06/09 09:22:06;;;;;;;5.23;4.17;;;18.10;99.90;;;;;;5044197;28;20583;-43
2022/06/09 09:24:40;;;;;;;4.60;4.20;;;18.10;99.90;;;;;;5052195;28;20206;-42
2022/06/09 09:27:20;;;;;;;4.30;3.90;;;18.10;99.90;;;;;;5047163;28;20194;-43
2022/06/09 09:29:55;;;;;;;3.97;3.57;;;18.20;99.90;;;;;;5041560;28;20740;-43
2022/06/09 09:32:27;;;;;;;4.47;3.77;;;18.10;99.90;;;;;;5049193;28;20700;-42
2022/06/09 09:34:56;;;;;;;4.20;3.80;;;18.10;99.90;;;;;;5034167;28;20567;-41
2022/06/09 09:37:27;;;;;;;4.50;4.10;;;18.10;99.90;;;;;;5050426;28;20768;-45
2022/06/09 09:39:59;;;;;;;3.93;3.63;;;18.20;99.90;;;;;;5041554;28;20219;-42
2022/06/09 09:42:28;;;;;;;4.60;4.10;;;18.20;99.90;;;;;;5053768;28;20735;-41
2022/06/09 09:45:15;;;;;;;3.93;3.63;;;18.30;99.90;;;;;;5039845;28;20206;-41
2022/06/09 09:47:50;;;;;;;4.40;3.23;;;18.50;99.90;;;;;;5054421;28;20194;-43
2022/06/09 09:50:27;;;;;;;3.40;3.10;;;18.60;99.90;;;;;;5051319;28;20225;-41
2022/06/09 09:52:58;;;;;;;3.63;3.30;;;18.60;99.90;;;;;;5042722;28;20668;-41
2022/06/09 09:55:30;;;;;;;3.10;2.80;;;18.60;99.90;;;;;;5057226;28;20256;-41
2022/06/09 09:58:20;;;;;;;3.77;3.30;;;18.60;99.90;;;;;;5042141;28;20208;-42
2022/06/09 10:00:50;;;;;;;2.80;2.60;;;18.60;99.90;;;;;;5047451;28;20242;-44
2022/06/09 10:09:07;;;;;;;4.57;3.57;;;18.80;99.90;;;;;;5036305;28;20209;-42
2022/06/09 10:11:54;;;;;;;4.17;3.80;;;18.70;99.90;;;;;;5052218;28;20209;-41
2022/06/09 10:14:42;;;;;;;4.53;3.80;;;18.60;99.90;;;;;;5049215;28;20195;-44
2022/06/09 10:17:22;;;;;;;4.00;3.17;;;18.60;99.90;;;;;;5047103;28;20369;-47
2022/06/09 10:19:55;;;;;;;3.50;3.17;;;18.50;99.90;;;;;;5050059;28;20218;-46
2022/06/09 10:22:24;;;;;;;2.93;2.73;;;18.50;99.90;;;;;;5043958;28;20660;-41
2022/06/09 10:24:55;;;;;;;2.50;2.40;;;18.40;99.90;;;;;;5037577;28;20280;-41
2022/06/09 10:27:27;;;;;;;3.07;2.37;;;18.40;99.90;;;;;;5056316;28;20191;-42
2022/06/09 10:30:01;;;;;;;3.00;2.80;;;18.60;99.90;;;;;;5045146;28;20713;-41
2022/06/09 10:32:34;;;;;;;3.90;2.70;;;18.60;99.90;;;;;;5043390;28;20269;-41
2022/06/09 10:35:11;;;;;;;4.37;2.90;;;18.70;99.90;;;;;;5040858;28;20901;-42
2022/06/09 10:37:44;;;;;;;3.63;2.93;;;18.80;99.90;;;;;;5047114;28;20198;-42
2022/06/09 10:40:15;;;;;;;3.13;2.93;;;18.90;99.90;;;;;;5034236;28;20288;-43
2022/06/09 10:42:52;;;;;;;3.60;3.30;;;18.80;99.90;;;;;;5053312;28;20187;-44
2022/06/09 10:45:24;;;;;;;4.87;2.80;;;18.70;99.90;;;;;;5043041;28;20285;-42
2022/06/09 10:56:43;;;;;;;4.20;3.90;;;18.60;99.90;;;;;;5055530;28;20290;-44
2022/06/09 10:59:16;;;;;;;3.53;3.20;;;18.50;99.90;;;;;;5049302;28;20272;-43
2022/06/09 11:01:44;;;;;;;5.27;3.80;;;18.60;99.90;;;;;;5042688;28;20206;-43
2022/06/09 11:04:15;;;;;;;4.00;3.70;;;18.70;99.90;;;;;;5053111;28;20199;-43
2022/06/09 11:07:10;;;;;;;3.67;3.37;;;18.80;99.90;;;;;;5042070;28;20835;-47
2022/06/09 11:09:47;;;;;;;3.70;3.50;;;18.90;99.90;;;;;;5040787;28;21734;-41
2022/06/09 11:12:23;;;;;;;3.57;3.37;;;19.00;99.90;;;;;;5051473;28;20217;-42
2022/06/09 11:15:03;;;;;;;4.37;4.00;;;19.10;99.90;;;;;;5048493;28;20195;-46
2022/06/09 11:17:45;;;;;;;4.27;3.87;;;19.10;99.90;;;;;;5044344;28;20222;-42
2022/06/09 11:20:23;;;;;;;4.10;3.70;;;19.10;99.90;;;;;;5055096;28;20226;-62
2022/06/09 11:23:01;;;;;;;3.83;3.53;;;19.20;99.90;;;;;;5042159;28;20348;-63
2022/06/09 11:25:38;;;;;;;3.40;3.10;;;19.30;99.90;;;;;;5039714;28;20213;-64
2022/06/09 11:28:34;;;;;;;3.00;2.80;;;19.20;99.90;;;;;;5048939;28;20210;-62
2022/06/09 11:31:40;;;;;;;3.53;2.77;;;19.10;99.90;;;;;;5049968;28;20711;-40
2022/06/09 11:34:20;;;;;;;2.60;2.40;;;19.20;99.90;;;;;;5045138;28;20298;-42
2022/06/09 11:37:00;;;;;;;2.17;2.03;;;19.30;99.90;;;;;;5050662;28;20206;-43
2022/06/09 11:39:44;;;;;;;2.50;2.30;;;19.40;99.90;;;;;;5050714;28;20364;-42
2022/06/09 11:42:18;;;;;;;1.60;1.50;;;19.60;99.90;;;;;;5044562;28;20235;-41
2022/06/09 11:44:48;;;;;;;1.70;1.60;;;19.90;99.90;;;;;;5053737;28;20292;-42
2022/06/09 11:47:17;;;;;;;1.70;1.60;;;20.00;99.90;;;;;;5051200;28;20199;-41
2022/06/09 11:49:46;;;;;;;4.60;3.37;;;19.80;99.90;;;;;;5045766;28;20233;-42
2022/06/09 11:52:17;;;;;;;2.67;2.17;;;19.70;99.90;;;;;;5044523;28;20203;-44
2022/06/09 11:55:00;;;;;;;2.53;2.33;;;19.60;99.90;;;;;;5051891;28;20497;-39
2022/06/09 11:57:48;;;;;;;2.87;2.67;;;19.40;99.90;;;;;;5037731;28;20279;-38
2022/06/09 12:00:38;;;;;;;2.70;2.50;;;19.40;99.90;;;;;;5053524;28;20219;-40
2022/06/09 12:03:33;;;;;;;3.10;2.90;;;19.70;99.90;;;;;;5051888;28;20253;-41
2022/06/09 12:06:04;;;;;;;2.93;2.70;;;20.00;99.90;;;;;;5039709;28;20226;-41
2022/06/09 12:08:45;;;;;;;3.00;2.77;;;20.10;99.90;;;;;;5048045;28;20276;-41
2022/06/09 12:11:18;;;;;;;3.00;2.70;;;20.10;99.90;;;;;;5067751;28;20220;-40
2022/06/09 12:14:03;;;;;;;3.00;2.80;;;20.00;99.90;;;;;;5044487;28;20210;-42
2022/06/09 12:16:36;;;;;;;2.40;2.20;;;19.80;99.90;;;;;;5051824;28;20202;-41
2022/06/09 12:19:22;;;;;;;2.63;2.43;;;19.70;99.90;;;;;;5057028;28;20211;-43
2022/06/09 12:21:52;;;;;;;2.50;2.30;;;19.70;99.90;;;;;;5053919;28;20813;-40
2022/06/09 12:24:33;;;;;;;2.27;2.07;;;19.80;99.90;;;;;;5047332;28;20203;-40
2022/06/09 12:27:21;;;;;;;1.70;1.60;;;20.00;99.90;;;;;;5050660;28;20199;-41
2022/06/09 12:30:24;;;;;;;2.27;1.77;;;20.10;99.90;;;;;;5036415;28;20297;-42
2022/06/09 12:32:56;;;;;;;2.60;2.37;;;20.10;99.90;;;;;;5044683;28;20211;-43
2022/06/09 12:35:30;;;;;;;2.27;2.07;;;20.00;99.90;;;;;;5040999;28;20226;-41
2022/06/09 12:38:01;;;;;;;1.97;1.87;;;20.10;99.90;;;;;;5052774;28;20302;-46
2022/06/09 12:40:36;;;;;;;1.93;1.73;;;20.20;99.90;;;;;;5053494;28;20215;-43
2022/06/09 12:43:08;;;;;;;1.83;1.73;;;20.20;99.90;;;;;;5045179;28;20207;-41
2022/06/09 12:45:37;;;;;;;1.83;1.73;;;20.30;99.90;;;;;;5042211;28;20417;-42
2022/06/09 12:48:11;;;;;;;1.30;1.30;;;20.20;99.90;;;;;;5043837;28;20209;-42
2022/06/09 12:50:42;;;;;;;1.70;1.60;;;20.20;99.90;;;;;;5041618;28;20231;-42
2022/06/09 12:53:18;;;;;;;1.83;1.73;;;20.60;99.90;;;;;;5049973;28;20203;-45
2022/06/09 12:55:51;;;;;;;2.60;1.37;;;21.10;99.90;;;;;;5048000;28;20206;-41
2022/06/09 12:58:22;;;;;;;1.70;1.60;;;21.20;99.90;;;;;;5042710;28;20227;-41
2022/06/09 13:00:54;;;;;;;1.30;1.30;;;21.20;99.90;;;;;;5037076;28;20231;-42
2022/06/09 13:03:25;;;;;;;1.80;1.27;;;21.00;99.90;;;;;;5055283;28;20682;-47
2022/06/09 13:05:53;;;;;;;2.13;1.53;;;20.90;99.90;;;;;;5045161;28;20264;-41
2022/06/09 13:08:23;;;;;;;1.80;1.40;;;21.20;99.90;;;;;;5039585;28;20207;-41
2022/06/09 13:10:57;;;;;;;1.43;1.27;;;21.80;99.90;;;;;;5044496;28;20222;-41
2022/06/09 13:13:28;;;;;;;1.43;1.30;;;21.50;99.90;;;;;;5039310;28;21990;-40
2022/06/09 13:15:58;;;;;;;2.07;1.47;;;21.20;99.90;;;;;;5039707;28;20210;-43
2022/06/09 13:18:30;;;;;;;4.07;1.77;;;21.20;99.90;;;;;;5048226;28;20277;-41
2022/06/09 13:21:06;;;;;;;3.55;1.25;;;21.50;99.90;;;;;;5048891;28;20226;-42
2022/06/09 13:23:34;;;;;;;1.88;1.52;;;21.90;99.90;;;;;;5041686;28;20972;-46
2022/06/09 13:26:01;;;;;;;1.15;1.15;;;22.00;99.90;;;;;;5050414;28;20214;-43
2022/06/09 13:28:37;;;;;;;2.20;1.73;;;22.00;99.90;;;;;;5040570;28;20274;-42